Time;durP1;ratioP1;P1;durP2;ratioP2;P2;SDS_P1;SDS_P2;PMS_P1;PMS_P2;Temp;Humidity;BMP_temperature;BMP_pressure;BME280_temperature;BME280_humidity;BME280_pressure;Samples;Min_cycle;Max_cycle;Signal;HPM_P1;HPM_P2
2023/05/23 00:02:07;;;;;;;65.43;45.40;;;;;;;19.80;53.46;93029.03;5025005;28;20049;-86
2023/05/23 00:04:32;;;;;;;62.35;44.85;;;;;;;19.80;53.37;93012.59;5009230;28;20063;-88
2023/05/23 00:06:57;;;;;;;63.53;45.55;;;;;;;19.81;53.36;93019.53;5026813;28;20483;-86
2023/05/23 00:09:23;;;;;;;61.50;44.85;;;;;;;19.79;53.45;93015.84;5007697;28;20053;-87
2023/05/23 00:11:48;;;;;;;66.68;46.13;;;;;;;19.80;53.45;93026.28;5025497;28;20029;-86
2023/05/23 00:14:14;;;;;;;59.60;44.90;;;;;;;19.79;53.58;93019.34;5028690;28;20099;-88
2023/05/23 00:16:43;;;;;;;55.33;43.08;;;;;;;19.78;53.39;93020.59;5039191;28;20037;-86
2023/05/23 00:19:13;;;;;;;55.65;43.15;;;;;;;19.78;53.45;93020.59;5015040;28;20049;-86
2023/05/23 00:21:40;;;;;;;61.15;45.58;;;;;;;19.78;53.55;93020.59;5029312;28;20044;-87
2023/05/23 00:24:06;;;;;;;62.30;44.30;;;;;;;19.77;53.47;93021.13;5029618;28;20120;-87
2023/05/23 00:26:31;;;;;;;65.40;43.90;;;;;;;19.79;53.32;93018.59;5024368;28;20494;-86
2023/05/23 00:28:57;;;;;;;57.45;42.65;;;;;;;19.79;53.41;93027.56;5012556;28;20268;-86
2023/05/23 00:31:22;;;;;;;61.92;43.63;;;;;;;19.77;53.67;93019.13;5010884;28;20050;-87
2023/05/23 00:33:48;;;;;;;65.88;44.55;;;;;;;19.77;53.58;93024.59;5028952;28;20068;-86
2023/05/23 00:36:13;;;;;;;59.45;43.05;;;;;;;19.77;53.50;93016.38;5029631;28;20045;-87
2023/05/23 00:38:39;;;;;;;60.22;43.38;;;;;;;19.76;53.64;93020.38;5012032;28;20041;-86
2023/05/23 00:41:05;;;;;;;59.85;43.30;;;;;;;19.75;53.47;93024.41;4994251;28;20519;-89
2023/05/23 00:43:30;;;;;;;54.65;40.88;;;;;;;19.75;53.61;93016.16;5027827;28;20175;-89
2023/05/23 00:45:56;;;;;;;61.92;42.35;;;;;;;19.75;53.68;93023.66;5028306;28;20029;-87
2023/05/23 00:48:21;;;;;;;54.30;40.42;;;;;;;19.76;53.44;93020.38;5028154;28;20037;-87
2023/05/23 00:50:47;;;;;;;61.03;41.50;;;;;;;19.74;53.67;93025.66;5029617;28;20099;-88
2023/05/23 00:53:12;;;;;;;60.17;42.47;;;;;;;19.76;53.55;93036.84;5027397;28;20046;-86
2023/05/23 00:55:38;;;;;;;59.95;40.40;;;;;;;19.75;53.51;93034.63;5028405;28;20033;-86
2023/05/23 00:58:04;;;;;;;58.45;39.15;;;;;;;19.74;53.36;93028.41;5029350;28;20047;-86
2023/05/23 01:00:29;;;;;;;56.90;42.60;;;;;;;19.75;53.70;93035.38;5011168;28;20044;-86
2023/05/23 01:02:55;;;;;;;57.40;42.88;;;;;;;19.74;53.51;93036.63;5028101;28;20037;-86
2023/05/23 01:05:23;;;;;;;59.92;39.75;;;;;;;19.74;53.56;93039.38;5028996;28;20033;-86
2023/05/23 01:07:49;;;;;;;57.50;41.67;;;;;;;19.74;53.69;93041.38;5030586;28;20047;-86
2023/05/23 01:10:16;;;;;;;51.08;39.78;;;;;;;19.73;53.63;93035.16;4994895;28;20041;-86
2023/05/23 01:12:55;;;;;;;53.50;40.13;;;;;;;19.73;53.50;93039.91;5011532;28;20034;-88
2023/05/23 01:15:22;;;;;;;52.92;40.17;;;;;;;19.73;53.51;93045.38;5020293;28;20127;-86
2023/05/23 01:17:49;;;;;;;54.53;40.28;;;;;;;19.73;53.68;93037.16;5014575;28;20181;-86
2023/05/23 01:20:21;;;;;;;48.60;38.17;;;;;;;19.72;53.67;93047.38;5010061;28;20033;-87
2023/05/23 01:23:04;;;;;;;53.95;39.60;;;;;;;19.72;53.57;93036.41;5027495;28;20037;-86
2023/05/23 01:25:49;;;;;;;56.53;40.88;;;;;;;19.71;53.57;93029.47;5026783;28;20045;-86
2023/05/23 01:28:16;;;;;;;56.08;39.42;;;;;;;19.72;53.38;93036.41;5027406;28;20041;-86
2023/05/23 01:30:41;;;;;;;53.97;39.13;;;;;;;19.70;53.60;93047.19;5028717;28;20067;-86
2023/05/23 01:33:07;;;;;;;55.55;39.70;;;;;;;19.71;53.64;93032.19;5009249;28;20439;-87
2023/05/23 01:35:33;;;;;;;49.38;38.28;;;;;;;19.71;53.66;93034.19;4990367;28;20443;-86
2023/05/23 01:37:58;;;;;;;54.60;39.28;;;;;;;19.71;53.65;93036.94;4973377;28;20038;-87
2023/05/23 01:40:24;;;;;;;53.03;39.83;;;;;;;19.69;53.66;93037.50;5005982;28;20069;-86
2023/05/23 01:42:50;;;;;;;53.47;39.35;;;;;;;19.71;53.26;93036.94;4974164;28;20121;-85
2023/05/23 01:45:15;;;;;;;53.80;37.53;;;;;;;19.69;53.58;93029.28;4973197;28;20065;-86
2023/05/23 01:47:41;;;;;;;48.28;36.10;;;;;;;19.69;53.72;93034.03;5006183;28;20038;-85
2023/05/23 01:50:07;;;;;;;51.25;37.28;;;;;;;19.68;53.66;93025.06;4989205;28;20100;-86
2023/05/23 01:52:33;;;;;;;51.15;37.97;;;;;;;19.68;53.72;93029.81;4957174;28;20046;-86
2023/05/23 01:54:58;;;;;;;48.00;36.42;;;;;;;19.69;53.62;93034.03;4990007;28;20463;-86
2023/05/23 01:57:24;;;;;;;52.50;38.33;;;;;;;19.67;53.91;93033.81;4989466;28;20038;-86
2023/05/23 01:59:49;;;;;;;48.65;35.33;;;;;;;19.69;53.60;93028.53;4998865;28;20045;-87
2023/05/23 02:02:15;;;;;;;48.92;36.15;;;;;;;19.67;53.70;93037.28;4999489;28;20050;-88
2023/05/23 02:04:40;;;;;;;50.58;37.35;;;;;;;19.69;53.53;93031.28;4998669;28;20107;-86
2023/05/23 02:07:06;;;;;;;48.22;37.03;;;;;;;19.68;53.52;93032.53;5026251;28;20487;-86
2023/05/23 02:09:31;;;;;;;53.45;37.63;;;;;;;19.67;53.59;93025.56;5020529;28;20055;-87
2023/05/23 02:11:58;;;;;;;48.05;36.85;;;;;;;19.67;53.36;93025.56;5026637;28;20403;-86
2023/05/23 02:14:25;;;;;;;47.75;36.20;;;;;;;19.69;53.54;93032.00;5026747;28;20501;-87
2023/05/23 02:16:52;;;;;;;48.60;36.90;;;;;;;19.68;53.54;93029.81;5028304;28;20037;-86
2023/05/23 02:19:18;;;;;;;54.20;38.30;;;;;;;19.68;53.63;93027.78;5026626;28;20356;-86
2023/05/23 02:21:43;;;;;;;46.70;36.72;;;;;;;19.65;53.61;93019.88;5027025;28;20041;-86
2023/05/23 02:24:08;;;;;;;51.00;36.40;;;;;;;19.66;53.57;93022.09;5027940;28;20038;-86
2023/05/23 02:26:34;;;;;;;51.22;35.78;;;;;;;19.68;53.48;93029.81;5026652;28;20128;-87
2023/05/23 02:29:00;;;;;;;47.42;35.63;;;;;;;19.65;53.50;93031.59;5027104;28;20051;-86
2023/05/23 02:31:25;;;;;;;45.17;35.25;;;;;;;19.65;53.47;93031.59;5025108;28;20033;-86
2023/05/23 02:33:51;;;;;;;51.47;35.40;;;;;;;19.65;53.68;93025.38;5028137;28;20475;-85
2023/05/23 02:36:16;;;;;;;47.70;35.33;;;;;;;19.66;53.53;93032.31;5009905;28;20041;-87
2023/05/23 02:38:41;;;;;;;49.53;35.38;;;;;;;19.64;53.74;93027.38;5028515;28;20095;-86
2023/05/23 02:41:07;;;;;;;45.80;34.38;;;;;;;19.64;53.64;93032.84;5009672;28;20045;-86
2023/05/23 02:43:33;;;;;;;44.08;33.97;;;;;;;19.63;53.58;93028.63;5026143;28;20099;-88
2023/05/23 02:45:58;;;;;;;45.08;34.20;;;;;;;19.62;54.06;93029.16;5009571;28;20049;-86
2023/05/23 02:48:23;;;;;;;48.72;33.75;;;;;;;19.63;53.66;93036.88;5025619;28;20531;-87
2023/05/23 02:50:49;;;;;;;46.53;35.33;;;;;;;19.61;53.64;93030.44;5026447;28;20034;-87
2023/05/23 02:53:15;;;;;;;43.38;33.38;;;;;;;19.60;53.86;93031.69;5026793;28;20044;-86
2023/05/23 02:55:41;;;;;;;45.25;33.65;;;;;;;19.61;53.54;93035.91;5027488;28;20042;-86
2023/05/23 02:58:07;;;;;;;47.53;34.25;;;;;;;19.62;53.57;93029.16;5002859;28;20049;-86
2023/05/23 03:00:33;;;;;;;48.97;33.33;;;;;;;19.60;53.61;93035.16;5027388;28;20045;-87
2023/05/23 03:02:59;;;;;;;44.88;33.17;;;;;;;19.62;53.59;93029.16;5026878;28;20052;-86
2023/05/23 03:05:24;;;;;;;46.80;33.08;;;;;;;19.62;53.62;93032.63;5025286;28;20045;-86
2023/05/23 03:07:51;;;;;;;43.55;33.72;;;;;;;19.63;53.58;93036.88;5027318;28;20040;-87
2023/05/23 03:10:16;;;;;;;46.10;33.25;;;;;;;19.62;53.64;93029.16;5025976;28;20103;-86
2023/05/23 03:12:42;;;;;;;45.33;33.70;;;;;;;19.61;53.55;93025.69;5025856;28;20488;-87
2023/05/23 03:15:08;;;;;;;46.13;35.05;;;;;;;19.58;53.46;93021.25;5026634;28;20404;-86
2023/05/23 03:17:34;;;;;;;47.22;32.70;;;;;;;19.60;53.54;93020.72;5026020;28;20120;-87
2023/05/23 03:19:59;;;;;;;44.17;33.53;;;;;;;19.60;53.54;93021.47;5026558;28;20064;-87
2023/05/23 03:22:25;;;;;;;40.75;31.08;;;;;;;19.61;53.67;93025.69;5026432;28;20622;-86
2023/05/23 03:24:50;;;;;;;46.03;33.13;;;;;;;19.60;53.62;93023.47;5025948;28;20048;-86
2023/05/23 03:27:16;;;;;;;43.08;33.55;;;;;;;19.59;53.81;93019.25;5024812;28;20045;-86
2023/05/23 03:29:41;;;;;;;42.85;31.38;;;;;;;19.58;53.74;93015.75;5027127;28;20099;-86
2023/05/23 03:32:07;;;;;;;42.13;31.35;;;;;;;19.63;53.56;93028.63;5023667;28;20772;-85
2023/05/23 03:34:33;;;;;;;146.77;105.88;;;;;;;19.74;53.30;93019.44;5019275;28;20041;-88
2023/05/23 03:36:58;;;;;;;238.77;211.50;;;;;;;19.78;53.46;93025.34;5018767;28;20081;-85
2023/05/23 03:39:24;;;;;;;111.05;81.07;;;;;;;19.87;53.47;93026.94;5026664;28;20574;-87
2023/05/23 03:41:49;;;;;;;52.83;39.35;;;;;;;19.83;53.23;93038.97;5026421;28;20030;-86
2023/05/23 03:44:15;;;;;;;60.85;45.50;;;;;;;19.89;53.67;93029.88;5025728;28;20067;-89
2023/05/23 03:46:40;;;;;;;43.83;34.58;;;;;;;19.84;53.48;93036.94;5030202;28;20045;-88
2023/05/23 03:49:14;;;;;;;48.92;34.85;;;;;;;19.83;53.45;93030.72;5026195;28;20038;-93
2023/05/23 03:51:39;;;;;;;46.88;32.95;;;;;;;19.81;53.98;93035.25;5029043;28;20041;-89
2023/05/23 03:54:05;;;;;;;60.20;33.40;;;;;;;19.80;53.54;93045.50;4991086;28;20365;-89
2023/05/23 03:56:30;;;;;;;78.35;36.78;;;;;;;19.80;53.65;93042.75;5023049;28;20463;-89
2023/05/23 03:58:56;;;;;;;52.72;33.42;;;;;;;19.80;53.27;93036.53;5019593;28;20056;-88
2023/05/23 04:01:21;;;;;;;53.20;27.38;;;;;;;19.74;52.46;93031.16;5009213;28;20099;-88
2023/05/23 04:03:47;;;;;;;63.35;25.65;;;;;;;19.60;52.04;93043.41;5035209;28;20041;-88
2023/05/23 04:06:13;;;;;;;91.63;29.90;;;;;;;19.63;51.70;93028.63;4998887;28;20042;-90
2023/05/23 04:08:40;;;;;;;68.00;19.98;;;;;;;19.64;51.46;93045.81;5022582;28;20492;-88
2023/05/23 04:11:06;;;;;;;63.78;20.00;;;;;;;19.68;51.73;93038.75;5007288;28;20088;-86
2023/05/23 04:13:32;;;;;;;44.47;17.25;;;;;;;19.62;51.23;93040.88;5016717;28;20041;-88
2023/05/23 04:16:00;;;;;;;83.28;21.65;;;;;;;19.58;51.39;93032.22;5001063;28;20044;-88
2023/05/23 04:18:27;;;;;;;104.00;23.92;;;;;;;19.60;51.55;93026.94;4997305;28;20574;-86
2023/05/23 04:20:53;;;;;;;89.90;25.25;;;;;;;19.64;51.71;93032.13;5001535;28;20091;-89
2023/05/23 04:23:18;;;;;;;58.55;16.05;;;;;;;19.60;51.50;93037.19;5008953;28;20042;-89
2023/05/23 04:25:43;;;;;;;44.30;14.57;;;;;;;19.58;52.11;93032.22;5033842;28;20056;-87
2023/05/23 04:28:10;;;;;;;45.20;15.32;;;;;;;19.58;51.85;93028.72;5030976;28;20048;-87
2023/05/23 04:30:35;;;;;;;27.85;11.63;;;;;;;19.43;52.81;93029.97;5015059;28;20460;-88
2023/05/23 04:33:01;;;;;;;56.50;21.80;;;;;;;19.42;53.18;93030.50;5005824;28;20072;-86
2023/05/23 04:35:29;;;;;;;48.80;19.33;;;;;;;19.41;53.02;93023.53;5005276;28;20870;-86
2023/05/23 04:37:55;;;;;;;59.40;19.15;;;;;;;19.47;52.94;93024.19;5013484;28;20499;-87
2023/05/23 04:40:23;;;;;;;55.10;21.65;;;;;;;19.43;52.83;93029.97;5021761;28;20045;-88
2023/05/23 04:42:48;;;;;;;54.85;20.70;;;;;;;19.35;52.71;93031.13;5009178;28;20101;-88
2023/05/23 04:45:14;;;;;;;35.30;16.00;;;;;;;19.31;52.99;93027.94;5010085;28;20041;-87
2023/05/23 04:47:40;;;;;;;39.60;19.27;;;;;;;19.39;53.01;93031.56;5029298;28;20042;-88
2023/05/23 04:50:06;;;;;;;107.90;59.40;;;;;;;19.29;53.06;93030.47;4993037;28;20049;-89
2023/05/23 04:52:32;;;;;;;64.93;29.92;;;;;;;19.41;53.40;93035.25;5016687;28;20063;-90
2023/05/23 04:54:59;;;;;;;42.70;18.58;;;;;;;19.43;53.33;93032.72;5002040;28;20373;-90
2023/05/23 04:57:24;;;;;;;37.70;16.20;;;;;;;19.39;53.67;93035.03;4999963;28;20091;-88
2023/05/23 04:59:50;;;;;;;26.70;15.32;;;;;;;19.43;53.71;93032.72;5001255;28;20478;-90
2023/05/23 05:02:15;;;;;;;53.45;14.27;;;;;;;19.39;53.46;93034.28;5019061;28;20049;-92
2023/05/23 05:04:41;;;;;;;22.70;12.68;;;;;;;19.30;53.96;93035.44;5017735;28;20047;-90
2023/05/23 05:07:06;;;;;;;20.67;10.52;;;;;;;19.22;54.04;93033.84;4986030;28;20505;-88
2023/05/23 05:09:32;;;;;;;36.10;13.80;;;;;;;19.06;54.71;93027.38;5013710;28;20052;-87
2023/05/23 05:11:58;;;;;;;36.75;16.25;;;;;;;19.05;54.73;93034.88;4998143;28;20565;-93
2023/05/23 05:14:27;;;;;;;52.60;24.50;;;;;;;19.21;54.69;93030.38;4987498;28;20117;-87
2023/05/23 05:16:56;;;;;;;46.63;18.75;;;;;;;19.23;54.70;93033.34;5006417;28;20041;-91
2023/05/23 05:19:30;;;;;;;59.20;24.38;;;;;;;19.35;54.70;93028.38;5016438;28;20052;-91
2023/05/23 05:21:56;;;;;;;58.80;25.30;;;;;;;19.33;54.70;93039.88;5007273;28;20045;-89
2023/05/23 05:24:22;;;;;;;61.08;27.13;;;;;;;19.25;55.22;93036.28;4990079;28;20041;-90
2023/05/23 05:26:47;;;;;;;48.30;20.60;;;;;;;19.29;55.12;93044.19;4983900;28;20049;-88
2023/05/23 05:29:13;;;;;;;102.13;32.80;;;;;;;19.27;55.37;93044.69;4993685;28;20053;-87
2023/05/23 05:31:39;;;;;;;81.95;39.92;;;;;;;19.28;55.37;93039.97;5028358;28;20050;-86
2023/05/23 05:34:05;;;;;;;68.25;36.13;;;;;;;19.35;55.90;93042.81;5012615;28;20045;-90
2023/05/23 05:36:31;;;;;;;109.22;42.33;;;;;;;19.24;55.74;93036.81;4982811;28;20056;-91
2023/05/23 05:38:57;;;;;;;130.00;46.45;;;;;;;19.27;55.86;93030.28;5009518;28;20041;-86
2023/05/23 05:41:22;;;;;;;146.75;46.90;;;;;;;19.14;55.86;93029.00;4971731;28;20177;-85
2023/05/23 05:43:48;;;;;;;81.10;32.13;;;;;;;19.29;55.64;93041.44;4988606;28;20034;-86
2023/05/23 05:46:13;;;;;;;62.50;27.48;;;;;;;19.26;55.78;93039.78;4990408;28;20060;-87
2023/05/23 05:48:38;;;;;;;69.05;26.63;;;;;;;19.23;56.21;93036.06;4989594;28;20075;-86
2023/05/23 05:51:04;;;;;;;45.08;20.67;;;;;;;19.18;56.45;93039.66;5005181;28;20042;-87
2023/05/23 05:53:30;;;;;;;52.88;20.55;;;;;;;19.23;56.14;93046.31;4961002;28;20085;-87
2023/05/23 05:55:55;;;;;;;45.40;21.00;;;;;;;19.21;56.47;93037.88;5005518;28;20416;-86
2023/05/23 05:58:21;;;;;;;55.35;24.90;;;;;;;19.19;56.38;93049.34;4990698;28;20046;-89
2023/05/23 06:00:47;;;;;;;70.15;27.77;;;;;;;19.31;56.67;93055.34;4974483;28;20046;-91
2023/05/23 06:03:16;;;;;;;64.07;27.45;;;;;;;19.26;57.12;93050.75;4970808;28;20033;-93
2023/05/23 06:05:43;;;;;;;46.58;26.77;;;;;;;19.27;56.90;93052.94;5006723;28;20042;-93
2023/05/23 06:08:14;;;;;;;62.08;26.05;;;;;;;19.27;56.71;93050.19;4968723;28;20048;-92
2023/05/23 06:10:40;;;;;;;72.07;29.05;;;;;;;19.36;56.91;93052.53;4982503;28;20115;-87
2023/05/23 06:13:06;;;;;;;48.95;26.15;;;;;;;19.36;56.66;93054.53;4989717;28;20415;-89
2023/05/23 06:15:32;;;;;;;75.28;46.40;;;;;;;19.35;56.86;93044.81;4986913;28;20526;-88
2023/05/23 06:17:58;;;;;;;93.57;59.40;;;;;;;19.39;56.37;93039.78;4988936;28;20041;-91
2023/05/23 06:20:23;;;;;;;64.93;41.53;;;;;;;19.35;56.84;93048.31;4982861;28;20129;-92
2023/05/23 06:22:49;;;;;;;44.55;27.70;;;;;;;19.35;56.78;93051.03;4989602;28;20060;-91
2023/05/23 06:25:15;;;;;;;40.47;24.60;;;;;;;19.32;57.09;93048.63;5012303;28;20100;-90
2023/05/23 06:27:40;;;;;;;40.47;24.00;;;;;;;19.30;56.95;93054.63;4991575;28;20441;-88
2023/05/23 06:30:06;;;;;;;31.52;21.15;;;;;;;19.33;56.90;93050.09;5024327;28;20049;-90
2023/05/23 06:32:32;;;;;;;64.45;23.70;;;;;;;19.33;56.84;93053.56;4987419;28;20046;-90
2023/05/23 06:34:57;;;;;;;45.15;20.58;;;;;;;19.27;57.10;93055.66;4997535;28;20040;-89
2023/05/23 06:37:24;;;;;;;61.42;23.67;;;;;;;19.24;57.51;93056.00;5005866;28;20042;-92
2023/05/23 06:39:50;;;;;;;122.57;30.42;;;;;;;19.33;57.52;93063.78;5021886;28;20037;-91
2023/05/23 06:42:16;;;;;;;49.63;21.60;;;;;;;19.37;57.11;93069.72;4986417;28;20120;-90
2023/05/23 06:44:41;;;;;;;67.55;23.40;;;;;;;19.31;57.50;93067.06;4984834;28;20102;-91
2023/05/23 06:47:09;;;;;;;43.60;21.55;;;;;;;19.23;57.66;93065.47;5009114;28;20123;-91
2023/05/23 06:49:35;;;;;;;62.13;31.10;;;;;;;19.26;57.76;93070.66;5002148;28;20049;-91
2023/05/23 06:52:00;;;;;;;47.53;24.20;;;;;;;19.30;57.60;93060.09;5005365;28;20094;-91
2023/05/23 06:54:25;;;;;;;38.65;22.80;;;;;;;19.21;58.08;93065.25;5012247;28;20048;-91
2023/05/23 06:56:51;;;;;;;63.28;34.13;;;;;;;19.14;57.92;93075.56;4988327;28;20049;-90
2023/05/23 06:59:16;;;;;;;57.65;28.88;;;;;;;19.25;58.00;93060.22;4993280;28;20064;-91
2023/05/23 07:01:42;;;;;;;38.28;22.52;;;;;;;19.26;58.02;93070.66;4981258;28;20049;-90
2023/05/23 07:04:07;;;;;;;51.75;26.55;;;;;;;19.28;57.87;93068.09;4981262;28;20471;-90
2023/05/23 07:06:34;;;;;;;44.47;21.92;;;;;;;19.21;58.38;93076.22;4989894;28;20034;-89
2023/05/23 07:09:00;;;;;;;45.05;23.92;;;;;;;19.11;58.63;93064.91;4983384;28;20057;-88
2023/05/23 07:11:26;;;;;;;60.60;27.65;;;;;;;19.16;58.69;93062.09;4974521;28;20045;-90
2023/05/23 07:13:52;;;;;;;46.25;26.38;;;;;;;19.13;58.88;93062.41;4979431;28;20858;-90
2023/05/23 07:16:17;;;;;;;43.58;22.02;;;;;;;19.15;59.09;93059.88;4993757;28;20077;-91
2023/05/23 07:18:43;;;;;;;36.05;20.27;;;;;;;19.07;59.14;93061.75;4993238;28;20037;-88
2023/05/23 07:21:08;;;;;;;37.22;18.85;;;;;;;19.08;59.22;93065.97;4991911;28;20099;-92
2023/05/23 07:23:33;;;;;;;31.10;17.65;;;;;;;18.99;59.56;93058.91;5009232;28;20041;-87
2023/05/23 07:26:00;;;;;;;42.20;20.10;;;;;;;19.03;59.81;93064.81;4971682;28;20046;-86
2023/05/23 07:28:25;;;;;;;55.20;33.15;;;;;;;19.12;59.46;93069.13;4960172;28;20061;-87
2023/05/23 07:30:51;;;;;;;91.13;48.60;;;;;;;19.12;59.25;93060.91;4971398;28;20052;-89
2023/05/23 07:33:18;;;;;;;95.78;54.38;;;;;;;19.13;59.11;93057.66;4976838;28;20053;-88
2023/05/23 07:35:43;;;;;;;131.40;59.47;;;;;;;19.23;59.16;93062.75;4980703;28;20046;-89
2023/05/23 07:38:09;;;;;;;123.22;58.25;;;;;;;19.17;59.48;93063.56;4985270;28;20075;-90
2023/05/23 07:40:34;;;;;;;94.70;44.85;;;;;;;19.13;59.31;93065.13;5035208;28;20098;-88
2023/05/23 07:43:02;;;;;;;64.55;32.67;;;;;;;19.24;59.49;93058.75;4977418;28;20135;-89
2023/05/23 07:45:27;;;;;;;55.28;30.75;;;;;;;19.24;59.11;93062.22;5012908;28;20712;-90
2023/05/23 07:47:53;;;;;;;43.40;24.55;;;;;;;19.24;59.59;93056.75;4952308;28;20109;-89
2023/05/23 07:50:19;;;;;;;41.83;23.08;;;;;;;19.23;59.43;93060.00;4967531;28;20053;-89
2023/05/23 07:52:45;;;;;;;51.33;22.58;;;;;;;19.30;59.57;93057.34;4975561;28;21007;-93
2023/05/23 07:55:11;;;;;;;51.17;19.30;;;;;;;19.34;59.05;93052.31;4978073;28;20037;-86
2023/05/23 07:57:36;;;;;;;64.82;21.02;;;;;;;19.32;59.46;93067.81;4977012;28;20123;-87
2023/05/23 08:00:04;;;;;;;42.03;19.08;;;;;;;19.23;59.54;93071.69;4965627;28;20041;-87
2023/05/23 08:02:30;;;;;;;35.63;19.02;;;;;;;19.17;59.50;93065.56;4978541;28;20095;-85
2023/05/23 08:04:55;;;;;;;30.00;17.67;;;;;;;19.16;59.95;93061.34;4980212;28;20045;-88
2023/05/23 08:07:21;;;;;;;30.15;17.15;;;;;;;19.18;59.82;93067.06;4961278;28;20152;-88
2023/05/23 08:09:56;;;;;;;31.52;18.05;;;;;;;19.12;60.19;93071.88;4992171;28;20041;-90
2023/05/23 08:12:21;;;;;;;27.90;17.67;;;;;;;19.13;60.13;93071.34;4962738;28;20038;-90
2023/05/23 08:14:46;;;;;;;28.90;19.25;;;;;;;19.16;60.14;93072.31;4996378;28;20046;-90
2023/05/23 08:17:12;;;;;;;25.63;17.35;;;;;;;19.18;60.20;93069.78;5016936;28;20072;-90
2023/05/23 08:19:38;;;;;;;26.80;18.40;;;;;;;19.18;60.27;93073.28;4999563;28;20043;-88
2023/05/23 08:22:03;;;;;;;32.92;17.33;;;;;;;19.20;60.14;93075.50;5002600;28;20045;-88
2023/05/23 08:24:29;;;;;;;31.58;17.40;;;;;;;19.17;60.45;93076.53;5033495;28;20080;-90
2023/05/23 08:26:55;;;;;;;25.67;16.90;;;;;;;19.16;60.53;93075.78;5020736;28;20391;-90
2023/05/23 08:29:21;;;;;;;34.08;19.63;;;;;;;19.25;60.01;93080.13;5011758;28;20054;-90
2023/05/23 08:31:46;;;;;;;27.88;20.92;;;;;;;19.26;60.20;93076.13;5023072;28;20057;-89
2023/05/23 08:34:13;;;;;;;32.20;18.95;;;;;;;19.24;60.23;93091.63;4993677;28;20045;-92
2023/05/23 08:36:41;;;;;;;38.63;19.38;;;;;;;19.24;60.00;93084.16;5048717;28;20041;-86
2023/05/23 08:39:07;;;;;;;42.70;18.00;;;;;;;19.21;60.19;93084.44;5011761;28;20096;-88
2023/05/23 08:41:33;;;;;;;36.63;17.90;;;;;;;19.18;60.19;93086.97;5032075;28;20073;-90
2023/05/23 08:43:58;;;;;;;39.25;19.33;;;;;;;19.22;60.19;93091.41;5000440;28;20038;-90
2023/05/23 08:46:26;;;;;;;38.83;19.98;;;;;;;19.22;59.91;93092.16;4995785;28;20124;-90
2023/05/23 08:48:53;;;;;;;36.42;19.17;;;;;;;19.26;60.23;93091.84;5022906;28;20040;-92
2023/05/23 08:51:22;;;;;;;32.72;20.90;;;;;;;19.32;59.91;93093.22;4998180;28;20096;-91
2023/05/23 08:53:55;;;;;;;55.08;27.40;;;;;;;19.32;59.98;93095.94;5014555;28;20111;-90
2023/05/23 08:56:23;;;;;;;51.40;29.08;;;;;;;19.33;59.94;93094.69;5007784;28;20045;-90
2023/05/23 08:58:49;;;;;;;68.53;33.80;;;;;;;19.34;60.01;93085.19;4998421;28;20084;-92
2023/05/23 09:01:17;;;;;;;80.65;36.08;;;;;;;19.24;60.12;93086.16;5015322;28;20521;-91
2023/05/23 09:03:43;;;;;;;95.32;49.30;;;;;;;19.26;60.09;93087.09;5032366;28;20128;-89
2023/05/23 09:06:09;;;;;;;125.78;56.60;;;;;;;19.28;59.95;93086.56;5000101;28;20037;-88
2023/05/23 09:08:35;;;;;;;133.73;63.95;;;;;;;19.34;60.09;93082.47;5010524;28;20038;-89
2023/05/23 09:11:03;;;;;;;121.72;57.35;;;;;;;19.42;59.58;93088.81;5019965;28;21097;-89
2023/05/23 09:13:30;;;;;;;162.50;66.22;;;;;;;19.39;59.86;93089.84;5049413;28;20042;-91
2023/05/23 09:15:58;;;;;;;167.95;66.18;;;;;;;19.40;59.98;93090.59;5013202;28;20598;-91
2023/05/23 09:18:38;;;;;;;149.45;64.75;;;;;;;19.43;59.84;93084.81;5004112;28;20489;-92
2023/05/23 09:21:04;;;;;;;127.20;58.45;;;;;;;19.51;59.64;93085.66;5015759;28;20048;-88
2023/05/23 09:23:31;;;;;;;146.75;62.03;;;;;;;19.49;59.70;93090.91;5029730;28;20163;-86
2023/05/23 09:25:56;;;;;;;127.82;60.22;;;;;;;19.50;59.54;93091.69;5037073;28;20037;-90
2023/05/23 09:28:22;;;;;;;120.43;53.17;;;;;;;19.55;59.49;93085.34;5011095;28;20041;-89
2023/05/23 09:30:56;;;;;;;132.40;58.85;;;;;;;19.54;60.09;93088.63;5002199;28;20106;-88
2023/05/23 09:33:21;;;;;;;143.38;63.97;;;;;;;19.67;59.71;93092.13;5012995;28;20037;-89
2023/05/23 09:35:47;;;;;;;142.20;60.38;;;;;;;19.61;59.40;93094.22;5049827;28;20037;-89
2023/05/23 09:38:12;;;;;;;123.40;58.88;;;;;;;19.61;59.60;93090.75;5016270;28;20446;-90
2023/05/23 09:40:43;;;;;;;138.13;62.72;;;;;;;19.63;59.71;93085.47;4999561;28;20487;-89
2023/05/23 09:43:09;;;;;;;128.55;58.20;;;;;;;19.66;59.54;93081.69;5019488;28;20034;-93
2023/05/23 09:45:34;;;;;;;134.20;66.15;;;;;;;19.68;59.46;93088.13;4992978;28;20092;-91
2023/05/23 09:48:00;;;;;;;181.38;67.93;;;;;;;19.72;59.99;93085.03;5013235;28;20396;-91
2023/05/23 09:50:30;;;;;;;167.70;68.10;;;;;;;19.73;59.45;93089.25;4980294;28;20042;-92
2023/05/23 09:52:56;;;;;;;162.80;61.50;;;;;;;19.77;59.13;93084.22;5002542;28;20050;-90
2023/05/23 09:55:21;;;;;;;139.07;63.92;;;;;;;19.75;59.96;93075.75;5021682;28;20045;-90
2023/05/23 09:57:48;;;;;;;150.95;62.53;;;;;;;19.80;59.38;93070.19;5010671;28;20061;-93
2023/05/23 10:00:14;;;;;;;210.88;67.10;;;;;;;19.83;59.50;93071.13;5008862;28;20060;-92
2023/05/23 10:02:55;;;;;;;154.20;58.42;;;;;;;19.83;59.64;93071.88;5002599;28;20038;-90
2023/05/23 10:05:35;;;;;;;134.80;53.05;;;;;;;19.84;59.49;93061.63;5048183;28;20207;-89
2023/05/23 10:08:06;;;;;;;108.97;45.15;;;;;;;19.85;59.49;93057.63;5052347;28;20049;-89
2023/05/23 10:10:49;;;;;;;105.57;47.33;;;;;;;19.84;59.75;93053.41;5041946;28;20037;-90
2023/05/23 10:13:15;;;;;;;118.43;46.22;;;;;;;19.87;59.99;93055.09;5023342;28;20083;-89
2023/05/23 10:15:40;;;;;;;620.85;553.83;;;;;;;19.88;59.95;93055.84;5004400;28;20041;-90
2023/05/23 10:18:12;;;;;;;201.45;141.93;;;;;;;19.90;59.46;93050.56;4977299;28;20089;-91
2023/05/23 10:20:38;;;;;;;114.35;72.03;;;;;;;19.94;59.46;93064.69;4979334;28;20041;-91
2023/05/23 10:23:04;;;;;;;62.58;34.17;;;;;;;19.96;59.37;93065.63;4968367;28;20050;-91
2023/05/23 10:25:29;;;;;;;77.15;39.28;;;;;;;19.95;59.96;93066.88;4965805;28;20116;-91
2023/05/23 10:27:57;;;;;;;64.30;33.45;;;;;;;20.02;59.12;93066.25;4986904;28;20049;-90
2023/05/23 10:30:26;;;;;;;507.27;448.83;;;;;;;20.02;59.43;93068.25;4962427;28;20053;-91
2023/05/23 10:32:51;;;;;;;103.20;78.50;;;;;;;20.05;59.18;93056.25;4964322;28;20038;-91
2023/05/23 10:35:31;;;;;;;86.10;58.80;;;;;;;19.99;59.54;93072.81;4993895;28;20034;-93
2023/05/23 10:38:06;;;;;;;70.70;46.45;;;;;;;20.01;59.39;93075.03;4964360;28;20053;-93
2023/05/23 10:41:01;;;;;;;56.80;31.85;;;;;;;20.00;59.59;93077.03;4995298;28;20040;-92
2023/05/23 10:43:38;;;;;;;382.40;330.45;;;;;;;19.99;59.73;93061.09;4983744;28;20456;-89
2023/05/23 10:46:08;;;;;;;101.75;67.32;;;;;;;20.02;59.51;93063.53;5032559;28;20040;-91
2023/05/23 10:48:34;;;;;;;48.75;33.60;;;;;;;20.08;59.46;93055.91;4977449;28;20046;-89
2023/05/23 10:51:05;;;;;;;40.85;32.65;;;;;;;20.10;59.31;93061.63;4957890;28;20054;-91
2023/05/23 10:53:31;;;;;;;48.03;31.25;;;;;;;20.08;59.32;93057.94;4958139;28;20125;-90
2023/05/23 10:55:57;;;;;;;55.78;31.98;;;;;;;20.12;59.25;93061.81;4976086;28;20046;-90
2023/05/23 10:58:22;;;;;;;87.75;42.63;;;;;;;20.09;59.31;93057.41;4979215;28;20562;-92
2023/05/23 11:00:56;;;;;;;99.88;62.10;;;;;;;20.14;59.11;93064.00;4963937;28;20050;-94
2023/05/23 11:03:35;;;;;;;101.10;62.38;;;;;;;20.23;58.65;93057.34;4998880;28;20137;-92
2023/05/23 11:06:02;;;;;;;100.00;57.63;;;;;;;20.31;58.76;93047.97;4990617;28;20060;-92
2023/05/23 11:08:40;;;;;;;118.18;59.78;;;;;;;20.36;58.75;93060.06;4962371;28;20046;-92
2023/05/23 11:11:06;;;;;;;138.75;70.18;;;;;;;20.36;58.78;93062.81;5006726;28;20104;-91
2023/05/23 11:13:54;;;;;;;142.48;75.30;;;;;;;20.40;58.59;93060.50;4954504;28;20072;-89